Terminal Aerodrome Forecast
Issued by NWS Twin Cities, MN

Home | Current Version | Previous Version | Graphics & Text | Print | Product List | Glossary On
Versions: 1 2 3 4 5 6 7 8 9 10 11 12 13 14 15 16 17 18 19 20 21 22 23 24 25 26 27 28 29 30 31
000
FTUS43 KMPX 170708 AAA
TAFMSP
TAF AMD
KMSP 170708Z 1707/1812 36005KT 4SM -FZRA BR OVC012
     FM170900 35006KT 5SM BR OVC008
      TEMPO 1709/1712 3SM -FZDZ BR OVC005
     FM171200 33006KT 5SM BR BKN012 OVC040
     FM171800 VRB03KT P6SM SCT020 SCT150
     FM172200 25005KT P6SM SCT150=

USA.gov is the U.S. government's official web portal to all federal, state and local government web resources and services.